Time;durP1;ratioP1;P1;durP2;ratioP2;P2;SDS_P1;SDS_P2;PMS_P1;PMS_P2;Temp;Humidity;BMP_temperature;BMP_pressure;BME280_temperature;BME280_humidity;BME280_pressure;Samples;Min_cycle;Max_cycle;Signal;HPM_P1;HPM_P2
2023/12/13 00:01:38;;;;;;;56.95;27.75;;;7.70;99.90;;;;;;4984205;28;20044;-55
2023/12/13 00:04:04;;;;;;;48.15;23.55;;;7.70;99.90;;;;;;4967795;28;20051;-55
2023/12/13 00:06:30;;;;;;;38.13;20.58;;;7.60;99.90;;;;;;4986086;28;20034;-56
2023/12/13 00:08:56;;;;;;;32.47;19.63;;;7.70;99.90;;;;;;4981164;28;20104;-54
2023/12/13 00:11:21;;;;;;;36.63;19.15;;;7.60;99.90;;;;;;4981174;28;21664;-56
2023/12/13 00:13:48;;;;;;;33.17;18.75;;;7.60;99.90;;;;;;4983440;28;20484;-55
2023/12/13 00:16:14;;;;;;;34.25;18.77;;;7.60;99.90;;;;;;4974892;28;20045;-55
2023/12/13 00:18:41;;;;;;;32.88;18.10;;;7.60;99.90;;;;;;4968971;28;20053;-55
2023/12/13 00:21:08;;;;;;;33.65;18.88;;;7.60;99.90;;;;;;4979559;28;20046;-56
2023/12/13 00:23:34;;;;;;;32.10;17.98;;;7.60;99.90;;;;;;4984968;28;20050;-55
2023/12/13 00:26:00;;;;;;;32.80;17.15;;;7.60;99.90;;;;;;4970013;28;20101;-54
2023/12/13 00:28:25;;;;;;;28.58;16.17;;;7.60;99.90;;;;;;4982200;28;20031;-55
2023/12/13 00:30:51;;;;;;;31.00;16.73;;;7.60;99.90;;;;;;4982518;28;20034;-55
2023/12/13 00:33:17;;;;;;;31.45;17.27;;;7.60;99.90;;;;;;4984324;28;20043;-57
2023/12/13 00:35:42;;;;;;;33.03;17.23;;;7.60;99.90;;;;;;4984518;28;20042;-56
2023/12/13 00:38:09;;;;;;;31.20;16.67;;;7.60;99.90;;;;;;4983277;28;20042;-55
2023/12/13 00:40:34;;;;;;;27.25;14.60;;;7.60;99.90;;;;;;4985188;28;20037;-55
2023/12/13 00:43:01;;;;;;;24.15;14.63;;;7.60;99.90;;;;;;4989266;28;20096;-55
2023/12/13 00:45:27;;;;;;;22.13;14.40;;;7.50;99.90;;;;;;4988997;28;20062;-53
2023/12/13 00:47:52;;;;;;;25.67;14.55;;;7.50;99.90;;;;;;4992771;28;20049;-55
2023/12/13 00:50:18;;;;;;;26.42;14.68;;;7.50;99.90;;;;;;4988025;28;20038;-56
2023/12/13 00:52:44;;;;;;;25.35;15.15;;;7.50;99.90;;;;;;4984335;28;20084;-55
2023/12/13 00:55:09;;;;;;;24.38;14.85;;;7.50;99.90;;;;;;4983997;28;20126;-55
2023/12/13 00:57:35;;;;;;;27.13;15.23;;;7.50;99.90;;;;;;4968884;28;20331;-55
2023/12/13 01:00:01;;;;;;;25.00;15.23;;;7.50;99.90;;;;;;4967025;28;20053;-54
2023/12/13 01:02:28;;;;;;;27.58;15.40;;;7.50;99.90;;;;;;4980868;28;20506;-56
2023/12/13 01:04:54;;;;;;;26.35;13.77;;;7.50;99.90;;;;;;4983695;28;20121;-55
2023/12/13 01:07:19;;;;;;;22.63;13.90;;;7.50;99.90;;;;;;4986098;28;20043;-55
2023/12/13 01:09:45;;;;;;;23.10;13.80;;;7.50;99.90;;;;;;4984960;28;20052;-54
2023/12/13 01:12:13;;;;;;;26.15;14.45;;;7.50;99.90;;;;;;4982696;28;20050;-54
2023/12/13 01:14:38;;;;;;;25.95;14.55;;;7.50;99.90;;;;;;4985452;28;20157;-56
2023/12/13 01:17:04;;;;;;;24.52;14.82;;;7.50;99.90;;;;;;4982754;28;20038;-56
2023/12/13 01:19:30;;;;;;;25.90;14.18;;;7.50;99.90;;;;;;4973879;28;20195;-56
2023/12/13 01:21:56;;;;;;;28.25;14.95;;;7.50;99.90;;;;;;4961403;28;20053;-54
2023/12/13 01:24:21;;;;;;;26.42;15.15;;;7.50;99.90;;;;;;4967202;28;20046;-55
2023/12/13 01:26:47;;;;;;;27.88;14.90;;;7.50;99.90;;;;;;4976448;28;22470;-55
2023/12/13 01:29:13;;;;;;;27.92;15.48;;;7.50;99.90;;;;;;4978670;28;20038;-54
2023/12/13 01:31:39;;;;;;;26.58;14.95;;;7.50;99.90;;;;;;4980995;28;20046;-54
2023/12/13 01:34:06;;;;;;;31.77;15.63;;;7.50;99.90;;;;;;4966424;28;20135;-54
2023/12/13 01:36:32;;;;;;;29.30;16.15;;;7.50;99.90;;;;;;4982437;28;20146;-54
2023/12/13 01:38:57;;;;;;;29.55;16.35;;;7.50;99.90;;;;;;4981546;28;20042;-54
2023/12/13 01:41:23;;;;;;;31.40;17.70;;;7.60;99.90;;;;;;4976786;28;20084;-52
2023/12/13 01:43:49;;;;;;;29.25;16.70;;;7.50;99.90;;;;;;4978981;28;20510;-54
2023/12/13 01:46:16;;;;;;;30.27;17.05;;;7.50;99.90;;;;;;4972958;28;20148;-54
2023/12/13 01:48:44;;;;;;;32.63;17.08;;;7.50;99.90;;;;;;4970939;28;20046;-52
2023/12/13 01:51:11;;;;;;;34.33;16.73;;;7.50;99.90;;;;;;4986963;28;20046;-56
2023/12/13 01:53:38;;;;;;;32.60;17.35;;;7.50;99.90;;;;;;4984488;28;20033;-56
2023/12/13 01:56:07;;;;;;;34.17;17.02;;;7.60;99.90;;;;;;4985568;28;20054;-56
2023/12/13 01:58:38;;;;;;;34.72;17.65;;;7.50;99.90;;;;;;4983154;28;20049;-55
2023/12/13 02:01:06;;;;;;;36.83;18.63;;;7.50;99.90;;;;;;4984448;28;20153;-56
2023/12/13 02:03:33;;;;;;;36.97;17.92;;;7.50;99.90;;;;;;4984464;28;20037;-54
2023/12/13 02:06:01;;;;;;;38.97;18.23;;;7.50;99.90;;;;;;4989420;28;20047;-56
2023/12/13 02:08:27;;;;;;;35.22;18.33;;;7.50;99.90;;;;;;4988983;28;20042;-56
2023/12/13 02:10:53;;;;;;;41.25;18.85;;;7.50;99.90;;;;;;4987937;28;20064;-55
2023/12/13 02:13:19;;;;;;;39.58;19.58;;;7.60;99.90;;;;;;4987938;28;20056;-55
2023/12/13 02:15:45;;;;;;;40.58;19.15;;;7.60;99.90;;;;;;4983685;28;20100;-56
2023/12/13 02:18:11;;;;;;;39.10;19.38;;;7.60;99.90;;;;;;4966451;28;20060;-55
2023/12/13 02:20:37;;;;;;;39.30;19.17;;;7.60;99.90;;;;;;4986593;28;20116;-54
2023/12/13 02:23:03;;;;;;;40.10;20.75;;;7.60;99.90;;;;;;4986516;28;20046;-56
2023/12/13 02:26:05;;;;;;;37.65;19.05;;;7.70;99.90;;;;;;4972874;28;20097;-54
2023/12/13 02:28:31;;;;;;;41.80;20.05;;;7.60;99.90;;;;;;4982348;28;20666;-55
2023/12/13 02:30:59;;;;;;;40.30;20.52;;;7.60;99.90;;;;;;4965706;28;20046;-54
2023/12/13 02:33:28;;;;;;;41.08;20.08;;;7.70;99.90;;;;;;4984461;28;20069;-55
2023/12/13 02:35:56;;;;;;;47.85;21.00;;;7.60;99.90;;;;;;4981333;28;20076;-55
2023/12/13 02:38:22;;;;;;;47.30;22.92;;;7.60;99.90;;;;;;4981116;28;20042;-56
2023/12/13 02:40:48;;;;;;;43.47;20.92;;;7.60;99.90;;;;;;4980756;28;20498;-55
2023/12/13 02:43:14;;;;;;;46.25;21.45;;;7.60;99.90;;;;;;4971558;28;20061;-56
2023/12/13 02:45:40;;;;;;;48.20;22.88;;;7.60;99.90;;;;;;4958207;28;20062;-56
2023/12/13 02:48:07;;;;;;;46.67;21.77;;;7.50;99.90;;;;;;4962710;28;20565;-54
2023/12/13 02:50:36;;;;;;;49.97;22.17;;;7.60;99.90;;;;;;4963647;28;20119;-55
2023/12/13 02:53:04;;;;;;;47.67;22.65;;;7.60;99.90;;;;;;4961972;28;20050;-56
2023/12/13 02:55:29;;;;;;;50.30;23.25;;;7.60;99.90;;;;;;4966067;28;20061;-52
2023/12/13 02:57:55;;;;;;;47.78;22.50;;;7.60;99.90;;;;;;4961654;28;20058;-54
2023/12/13 03:00:21;;;;;;;51.85;23.98;;;7.60;99.90;;;;;;4919458;28;20043;-55
2023/12/13 03:02:47;;;;;;;58.83;23.77;;;7.60;99.90;;;;;;4963345;28;20062;-56
2023/12/13 03:05:13;;;;;;;54.58;23.63;;;7.60;99.90;;;;;;4961764;28;20050;-55
2023/12/13 03:07:41;;;;;;;55.50;24.25;;;7.60;99.90;;;;;;4963835;28;20049;-56
2023/12/13 03:10:08;;;;;;;54.22;23.90;;;7.70;99.90;;;;;;4964305;28;20140;-56
2023/12/13 03:12:34;;;;;;;54.97;24.92;;;7.70;99.90;;;;;;4962365;28;20056;-53
2023/12/13 03:14:59;;;;;;;56.65;24.98;;;7.70;99.90;;;;;;4962710;28;20582;-55
2023/12/13 03:17:25;;;;;;;56.15;24.38;;;7.70;99.90;;;;;;4959567;28;20050;-56
2023/12/13 03:19:51;;;;;;;54.50;24.35;;;7.70;99.90;;;;;;4961548;28;21409;-55
2023/12/13 03:22:16;;;;;;;52.70;24.27;;;7.70;99.90;;;;;;4964270;28;20354;-55
2023/12/13 03:24:42;;;;;;;51.55;23.98;;;7.70;99.90;;;;;;4961822;28;20147;-56
2023/12/13 03:27:08;;;;;;;49.20;24.33;;;7.70;99.90;;;;;;4965509;28;20930;-55
2023/12/13 03:29:33;;;;;;;46.58;23.23;;;7.70;99.90;;;;;;4969758;28;20039;-54
2023/12/13 03:31:59;;;;;;;53.60;24.25;;;7.70;99.90;;;;;;4969598;28;20531;-56
2023/12/13 03:34:25;;;;;;;53.40;24.92;;;7.70;99.90;;;;;;4967019;28;20046;-54
2023/12/13 03:36:51;;;;;;;52.90;23.63;;;7.70;99.90;;;;;;4964470;28;20039;-55
2023/12/13 03:39:17;;;;;;;46.80;22.65;;;7.70;99.90;;;;;;4970611;28;20054;-56
2023/12/13 03:41:43;;;;;;;52.08;23.95;;;7.70;99.90;;;;;;4965714;28;20038;-56
2023/12/13 03:44:09;;;;;;;51.25;23.10;;;7.70;99.90;;;;;;4979745;28;20132;-56
2023/12/13 03:46:35;;;;;;;47.88;23.65;;;7.60;99.90;;;;;;4986343;28;20290;-56
2023/12/13 03:49:01;;;;;;;54.58;24.13;;;7.70;99.90;;;;;;4971512;28;20653;-55
2023/12/13 03:51:26;;;;;;;54.60;24.20;;;7.70;99.90;;;;;;4986176;28;20043;-56
2023/12/13 03:53:52;;;;;;;49.67;22.65;;;7.70;99.90;;;;;;4988689;28;20137;-57
2023/12/13 03:56:18;;;;;;;51.17;23.98;;;7.60;99.90;;;;;;4988452;28;20046;-55
2023/12/13 03:58:43;;;;;;;54.95;24.27;;;7.60;99.90;;;;;;4986821;28;20108;-56
2023/12/13 04:01:09;;;;;;;49.75;23.25;;;7.60;99.90;;;;;;4987010;28;20099;-56
2023/12/13 04:03:35;;;;;;;49.22;22.58;;;7.60;99.90;;;;;;4976933;28;20223;-57
2023/12/13 04:06:01;;;;;;;48.05;24.13;;;7.70;99.90;;;;;;4974061;28;20045;-54
2023/12/13 04:08:27;;;;;;;51.97;24.13;;;7.70;99.90;;;;;;4983219;28;20072;-55
2023/12/13 04:10:53;;;;;;;54.63;23.25;;;7.70;99.90;;;;;;4983324;28;20125;-55
2023/12/13 04:13:18;;;;;;;51.33;23.77;;;7.70;99.90;;;;;;4982421;28;20116;-55
2023/12/13 04:15:44;;;;;;;51.67;23.63;;;7.70;99.90;;;;;;4982981;28;20671;-55
2023/12/13 04:18:11;;;;;;;50.63;22.95;;;7.60;99.90;;;;;;4985740;28;20511;-56
2023/12/13 04:20:36;;;;;;;50.92;22.50;;;7.60;99.90;;;;;;4986178;28;20061;-56
2023/12/13 04:23:03;;;;;;;47.88;22.63;;;7.70;99.90;;;;;;4986628;28;20038;-56
2023/12/13 04:25:29;;;;;;;44.97;21.65;;;7.70;99.90;;;;;;4986768;28;20042;-56
2023/12/13 04:27:55;;;;;;;48.88;22.45;;;7.60;99.90;;;;;;4987227;28;20076;-55
2023/12/13 04:30:20;;;;;;;45.53;22.25;;;7.50;99.90;;;;;;4984159;28;20511;-56
2023/12/13 04:32:46;;;;;;;45.05;21.83;;;7.70;99.90;;;;;;4984563;28;20155;-54
2023/12/13 04:35:12;;;;;;;46.38;22.05;;;7.70;99.90;;;;;;4986356;28;20042;-56
2023/12/13 04:37:38;;;;;;;45.78;21.80;;;7.70;99.90;;;;;;4982223;28;20435;-56
2023/12/13 04:40:06;;;;;;;44.70;21.42;;;7.70;99.90;;;;;;4985232;28;20088;-55
2023/12/13 04:42:32;;;;;;;43.38;21.45;;;7.70;99.90;;;;;;4974941;28;20034;-53
2023/12/13 04:44:57;;;;;;;47.28;21.08;;;7.60;99.90;;;;;;4983474;28;20737;-52
2023/12/13 04:47:24;;;;;;;48.38;21.27;;;7.70;99.90;;;;;;4984630;28;20050;-56
2023/12/13 04:49:50;;;;;;;38.35;20.25;;;7.60;99.90;;;;;;4977666;28;20053;-53
2023/12/13 04:52:15;;;;;;;43.17;21.08;;;7.60;99.90;;;;;;4978129;28;20046;-55
2023/12/13 04:54:41;;;;;;;40.28;20.55;;;7.70;99.90;;;;;;4982106;28;20521;-56
2023/12/13 04:57:08;;;;;;;41.58;20.40;;;7.60;99.90;;;;;;4988990;28;20046;-55
2023/12/13 04:59:33;;;;;;;40.33;20.77;;;7.70;99.90;;;;;;4951912;28;20125;-55
2023/12/13 05:01:59;;;;;;;41.35;20.40;;;7.60;99.90;;;;;;4985070;28;20149;-52
2023/12/13 05:04:25;;;;;;;40.05;20.67;;;7.60;99.90;;;;;;4990247;28;20161;-56
2023/12/13 05:06:50;;;;;;;40.97;20.67;;;7.60;99.90;;;;;;4993014;28;20066;-55
2023/12/13 05:09:16;;;;;;;41.85;20.50;;;7.60;99.90;;;;;;4970956;28;20061;-55
2023/12/13 05:11:42;;;;;;;41.85;20.23;;;7.60;99.90;;;;;;4981331;28;20038;-54
2023/12/13 05:14:08;;;;;;;41.47;21.25;;;7.60;99.90;;;;;;4982840;28;20077;-56
2023/12/13 05:16:34;;;;;;;36.80;18.50;;;7.60;99.90;;;;;;4980495;28;20081;-55
2023/12/13 05:19:00;;;;;;;37.55;19.35;;;7.60;99.90;;;;;;4978907;28;20052;-55
2023/12/13 05:21:26;;;;;;;38.13;19.48;;;7.60;99.90;;;;;;4978190;28;20049;-55
2023/12/13 05:23:51;;;;;;;32.97;19.13;;;7.60;99.90;;;;;;4979743;28;20054;-55
2023/12/13 05:26:17;;;;;;;39.38;19.55;;;7.60;99.90;;;;;;4979804;28;20042;-54
2023/12/13 05:28:43;;;;;;;37.15;18.95;;;7.60;99.90;;;;;;4977695;28;20046;-54
2023/12/13 05:31:22;;;;;;;39.65;20.15;;;7.60;99.90;;;;;;4979202;28;20057;-54
2023/12/13 05:33:49;;;;;;;39.90;19.08;;;7.60;99.90;;;;;;4980899;28;20046;-55
2023/12/13 05:36:14;;;;;;;38.65;19.92;;;7.60;99.90;;;;;;4977279;28;20050;-56
2023/12/13 05:38:41;;;;;;;36.47;20.45;;;7.60;99.90;;;;;;4977232;28;20046;-55
2023/12/13 05:41:07;;;;;;;35.38;19.40;;;7.60;99.90;;;;;;4978507;28;21314;-55
2023/12/13 05:43:35;;;;;;;36.15;19.88;;;7.60;99.90;;;;;;4943253;28;20436;-56
2023/12/13 05:46:07;;;;;;;42.95;20.73;;;7.60;99.90;;;;;;4979125;28;20558;-54
2023/12/13 05:48:34;;;;;;;33.58;19.30;;;7.60;99.90;;;;;;4977786;28;20053;-55
2023/12/13 05:51:00;;;;;;;35.55;19.42;;;7.60;99.90;;;;;;4962551;28;20143;-53
2023/12/13 05:53:25;;;;;;;40.03;20.20;;;7.60;99.90;;;;;;4982584;28;20041;-55
2023/12/13 05:55:51;;;;;;;34.13;18.55;;;7.60;99.90;;;;;;4982056;28;20129;-55
2023/12/13 05:58:17;;;;;;;39.28;20.23;;;7.60;99.90;;;;;;4963857;28;20065;-55
2023/12/13 06:00:43;;;;;;;35.35;19.23;;;7.60;99.90;;;;;;4964045;28;20140;-55
2023/12/13 06:03:09;;;;;;;36.28;19.58;;;7.60;99.90;;;;;;4979179;28;20054;-56
2023/12/13 06:05:35;;;;;;;39.50;19.38;;;7.60;99.90;;;;;;4975431;28;20050;-56
2023/12/13 06:08:01;;;;;;;38.95;20.42;;;7.60;99.90;;;;;;4975687;28;20045;-56
2023/12/13 06:10:27;;;;;;;38.22;19.75;;;7.60;99.90;;;;;;4970248;28;20675;-54
2023/12/13 06:12:53;;;;;;;40.83;20.42;;;7.70;99.90;;;;;;4978558;28;20112;-56
2023/12/13 06:15:21;;;;;;;40.70;21.08;;;7.60;99.90;;;;;;4963881;28;20056;-55
2023/12/13 06:17:47;;;;;;;42.55;21.65;;;7.60;99.90;;;;;;4973511;28;20042;-54
2023/12/13 06:20:13;;;;;;;38.08;20.80;;;7.60;99.90;;;;;;4971133;28;20409;-56
2023/12/13 06:22:38;;;;;;;39.75;19.77;;;7.60;99.90;;;;;;4972141;28;20042;-55
2023/12/13 06:25:05;;;;;;;39.03;20.73;;;7.60;99.90;;;;;;4962474;28;20454;-53
2023/12/13 06:27:30;;;;;;;37.67;20.48;;;7.60;99.90;;;;;;4976540;28;20058;-55
2023/12/13 06:29:56;;;;;;;39.97;20.92;;;7.60;99.90;;;;;;4971491;28;20406;-55
2023/12/13 06:32:22;;;;;;;39.45;20.17;;;7.60;99.90;;;;;;4958457;28;20889;-55
2023/12/13 06:34:47;;;;;;;40.35;21.92;;;7.60;99.90;;;;;;4976096;28;20214;-54
2023/12/13 06:37:13;;;;;;;38.15;20.88;;;7.60;99.90;;;;;;4960305;28;20058;-55
2023/12/13 06:39:39;;;;;;;40.97;21.95;;;7.60;99.90;;;;;;4956863;28;20046;-56
2023/12/13 06:42:08;;;;;;;39.63;21.63;;;7.60;99.90;;;;;;4941598;28;20049;-54
2023/12/13 06:44:37;;;;;;;42.47;21.20;;;7.60;99.90;;;;;;4972639;28;20482;-55
2023/12/13 06:47:04;;;;;;;41.78;21.60;;;7.60;99.90;;;;;;4971539;28;20600;-54
2023/12/13 06:49:34;;;;;;;40.35;21.40;;;7.60;99.90;;;;;;4974763;28;20169;-55
2023/12/13 06:52:01;;;;;;;43.00;21.92;;;7.60;99.90;;;;;;4976093;28;20045;-54
2023/12/13 06:54:28;;;;;;;42.83;21.92;;;7.60;99.90;;;;;;4969693;28;22061;-53
2023/12/13 06:56:54;;;;;;;40.90;21.95;;;7.60;99.90;;;;;;4970206;28;20047;-52
2023/12/13 06:59:20;;;;;;;42.08;21.85;;;7.60;99.90;;;;;;4973630;28;20046;-55
2023/12/13 07:01:46;;;;;;;43.30;22.30;;;7.70;99.90;;;;;;4977078;28;20217;-55
2023/12/13 07:04:11;;;;;;;38.08;21.63;;;7.60;99.90;;;;;;4974973;28;20042;-56
2023/12/13 07:06:37;;;;;;;40.55;21.63;;;7.70;99.90;;;;;;4973638;28;20500;-55
2023/12/13 07:09:03;;;;;;;36.97;21.17;;;7.60;99.90;;;;;;4950898;28;20048;-56
2023/12/13 07:11:29;;;;;;;43.22;22.80;;;7.70;99.90;;;;;;4985710;28;20046;-55
2023/12/13 07:13:55;;;;;;;43.15;22.42;;;7.70;99.90;;;;;;4983312;28;20067;-54
2023/12/13 07:16:20;;;;;;;41.72;23.20;;;7.60;99.90;;;;;;4981244;28;20045;-56
2023/12/13 07:18:46;;;;;;;45.35;23.15;;;7.70;99.90;;;;;;4980264;28;20495;-56
2023/12/13 07:21:12;;;;;;;44.83;23.35;;;7.60;99.90;;;;;;4982813;28;20175;-56
2023/12/13 07:23:39;;;;;;;43.33;22.73;;;7.70;99.90;;;;;;4981923;28;20046;-56
2023/12/13 07:26:05;;;;;;;46.42;23.52;;;7.70;99.90;;;;;;4975566;28;20053;-55
2023/12/13 07:28:31;;;;;;;45.72;22.42;;;7.70;99.90;;;;;;4984651;28;20390;-55
2023/12/13 07:30:57;;;;;;;49.85;24.60;;;7.70;99.90;;;;;;4969634;28;20048;-56
2023/12/13 07:33:23;;;;;;;40.63;22.85;;;7.70;99.90;;;;;;4956117;28;20125;-54
2023/12/13 07:35:49;;;;;;;49.28;25.08;;;7.70;99.90;;;;;;4976359;28;20042;-56
2023/12/13 07:38:15;;;;;;;43.72;24.05;;;7.70;99.90;;;;;;4963066;28;20507;-56
2023/12/13 07:40:44;;;;;;;41.33;22.85;;;7.70;99.90;;;;;;4973209;28;20104;-55
2023/12/13 07:43:13;;;;;;;53.33;25.75;;;7.70;99.90;;;;;;4974679;28;20540;-55
2023/12/13 07:45:39;;;;;;;46.10;24.48;;;7.70;99.90;;;;;;4979915;28;20049;-56
2023/12/13 07:48:05;;;;;;;42.42;24.20;;;7.70;99.90;;;;;;4964351;28;20411;-52
2023/12/13 07:50:31;;;;;;;44.47;24.48;;;7.70;99.90;;;;;;4968156;28;20065;-55
2023/12/13 07:52:57;;;;;;;47.25;25.02;;;7.70;99.90;;;;;;4962907;28;20103;-54
2023/12/13 07:55:23;;;;;;;45.40;24.67;;;7.70;99.90;;;;;;4967533;28;21063;-55
2023/12/13 07:57:52;;;;;;;46.60;25.23;;;7.70;99.90;;;;;;4978466;28;20050;-54
2023/12/13 08:00:18;;;;;;;50.50;25.73;;;7.70;99.90;;;;;;4984190;28;20042;-56
2023/12/13 08:02:44;;;;;;;45.85;25.13;;;7.70;99.90;;;;;;4967736;28;20209;-58
2023/12/13 08:05:10;;;;;;;49.58;27.27;;;7.70;99.90;;;;;;4986332;28;20502;-58
2023/12/13 08:07:36;;;;;;;49.30;26.38;;;7.70;99.90;;;;;;4955911;28;20042;-58
2023/12/13 08:10:07;;;;;;;55.03;26.35;;;7.70;99.90;;;;;;4981318;28;20035;-55
2023/12/13 08:12:36;;;;;;;54.90;26.77;;;7.70;99.90;;;;;;4983806;28;20523;-56
2023/12/13 08:15:05;;;;;;;48.03;26.00;;;7.80;99.90;;;;;;4971985;28;20062;-58
2023/12/13 08:17:31;;;;;;;47.38;25.92;;;7.70;99.90;;;;;;4981261;28;20057;-57
2023/12/13 08:19:57;;;;;;;56.67;27.30;;;7.80;99.90;;;;;;4982402;28;20442;-57
2023/12/13 08:22:22;;;;;;;53.80;26.25;;;7.80;99.90;;;;;;4982578;28;20084;-58
2023/12/13 08:24:48;;;;;;;50.85;25.52;;;7.80;99.90;;;;;;4981099;28;20053;-58
2023/12/13 08:27:14;;;;;;;52.92;26.17;;;7.80;99.90;;;;;;4959716;28;20041;-58
2023/12/13 08:29:40;;;;;;;59.97;26.92;;;7.80;99.90;;;;;;4978519;28;20048;-57
2023/12/13 08:32:06;;;;;;;56.15;26.20;;;7.80;99.90;;;;;;4964636;28;20053;-58
2023/12/13 08:34:32;;;;;;;57.47;27.48;;;7.80;99.90;;;;;;4982424;28;20096;-57
2023/12/13 08:36:59;;;;;;;55.30;26.88;;;7.80;99.90;;;;;;4982462;28;20179;-56
2023/12/13 08:39:24;;;;;;;54.60;26.60;;;7.80;99.90;;;;;;4982157;28;20263;-58
2023/12/13 08:41:50;;;;;;;53.30;27.73;;;7.80;99.90;;;;;;4978556;28;20041;-57
2023/12/13 08:44:16;;;;;;;49.67;27.05;;;7.80;99.90;;;;;;4982141;28;20050;-58
2023/12/13 08:46:41;;;;;;;59.35;28.10;;;7.70;99.90;;;;;;4984574;28;20478;-57
2023/12/13 08:49:07;;;;;;;54.20;27.95;;;7.80;99.90;;;;;;4982098;28;20054;-57
2023/12/13 08:51:33;;;;;;;56.10;27.90;;;7.80;99.90;;;;;;4980337;28;20090;-57
2023/12/13 08:53:59;;;;;;;54.88;26.80;;;7.80;99.90;;;;;;4981470;28;20414;-58
2023/12/13 08:56:24;;;;;;;54.63;26.65;;;7.80;99.90;;;;;;4969306;28;20046;-57
2023/12/13 08:58:50;;;;;;;54.85;27.70;;;7.80;99.90;;;;;;4976120;28;20084;-57
2023/12/13 09:01:16;;;;;;;53.25;28.02;;;7.80;99.90;;;;;;4977094;28;20049;-59
2023/12/13 09:03:42;;;;;;;52.40;26.88;;;7.90;99.90;;;;;;4978832;28;20034;-57
2023/12/13 09:06:09;;;;;;;58.50;28.60;;;7.80;99.90;;;;;;4978615;28;20046;-57
2023/12/13 09:08:34;;;;;;;56.97;27.75;;;7.80;99.90;;;;;;4980453;28;20257;-58
2023/12/13 09:11:00;;;;;;;57.97;28.70;;;7.80;99.90;;;;;;4975569;28;20515;-57
2023/12/13 09:13:27;;;;;;;54.25;28.02;;;7.80;99.90;;;;;;4981149;28;20058;-58
2023/12/13 09:15:52;;;;;;;53.53;28.48;;;7.90;99.90;;;;;;4981941;28;20516;-58
2023/12/13 09:18:19;;;;;;;57.75;27.95;;;7.90;99.90;;;;;;4962882;28;20054;-57
2023/12/13 09:20:45;;;;;;;55.55;28.33;;;7.90;99.90;;;;;;4980340;28;20050;-57
2023/12/13 09:23:20;;;;;;;67.22;28.65;;;7.90;99.90;;;;;;4974759;28;20073;-58
2023/12/13 09:25:46;;;;;;;61.08;28.80;;;7.90;99.90;;;;;;4972736;28;20134;-58
2023/12/13 09:28:12;;;;;;;62.22;28.50;;;7.90;99.90;;;;;;4960682;28;20646;-59
2023/12/13 09:30:38;;;;;;;62.05;29.63;;;8.00;99.90;;;;;;4978254;28;20120;-58
2023/12/13 09:33:04;;;;;;;65.93;29.73;;;8.00;99.90;;;;;;4979103;28;20042;-58
2023/12/13 09:35:29;;;;;;;72.28;30.45;;;8.00;99.90;;;;;;4986805;28;20050;-58
2023/12/13 09:37:55;;;;;;;60.92;29.55;;;8.00;99.90;;;;;;4983182;28;20152;-56
2023/12/13 09:40:21;;;;;;;65.70;29.65;;;8.10;99.90;;;;;;4985264;28;20092;-56
2023/12/13 09:42:47;;;;;;;67.82;30.48;;;8.10;99.90;;;;;;4983231;28;20124;-57
2023/12/13 09:45:20;;;;;;;63.33;29.70;;;8.10;99.90;;;;;;4988960;28;20054;-57
2023/12/13 09:47:49;;;;;;;65.50;29.45;;;8.20;99.90;;;;;;4988953;28;20054;-58
2023/12/13 09:50:15;;;;;;;56.25;27.98;;;8.20;99.90;;;;;;4987415;28;20282;-58
2023/12/13 09:52:43;;;;;;;82.13;30.90;;;8.20;99.90;;;;;;4970122;28;20042;-58
2023/12/13 09:55:10;;;;;;;70.22;30.58;;;8.30;99.90;;;;;;4975676;28;20053;-57
2023/12/13 09:57:36;;;;;;;67.40;30.90;;;8.30;99.90;;;;;;4982886;28;20149;-56
2023/12/13 10:00:03;;;;;;;64.65;29.98;;;8.30;99.90;;;;;;4971878;28;20034;-58
2023/12/13 10:02:29;;;;;;;68.57;32.08;;;8.40;99.90;;;;;;4966678;28;20065;-58
2023/12/13 10:04:57;;;;;;;67.85;30.20;;;8.40;99.90;;;;;;4978298;28;20056;-58
2023/12/13 10:07:23;;;;;;;70.95;30.83;;;8.40;99.90;;;;;;4981741;28;20054;-56
2023/12/13 10:09:49;;;;;;;69.38;30.92;;;8.50;99.90;;;;;;4979947;28;20673;-58
2023/12/13 10:12:16;;;;;;;63.75;30.02;;;8.50;99.90;;;;;;4978572;28;20050;-57
2023/12/13 10:14:43;;;;;;;62.72;30.02;;;8.50;99.90;;;;;;4981664;28;20045;-56
2023/12/13 10:17:08;;;;;;;72.47;31.20;;;8.50;99.90;;;;;;4984825;28;20082;-57
2023/12/13 10:19:35;;;;;;;61.55;30.67;;;8.60;99.90;;;;;;4980884;28;20164;-57
2023/12/13 10:22:05;;;;;;;67.45;30.80;;;8.50;99.90;;;;;;4979147;28;20072;-57
2023/12/13 10:24:31;;;;;;;62.85;29.23;;;8.70;99.90;;;;;;4974050;28;20062;-58
2023/12/13 10:26:57;;;;;;;62.95;29.77;;;8.70;99.90;;;;;;4984722;28;20052;-57
2023/12/13 10:29:23;;;;;;;57.58;29.88;;;8.70;99.90;;;;;;4963378;28;20494;-58
2023/12/13 10:31:49;;;;;;;62.97;30.13;;;8.70;99.90;;;;;;4965663;28;20177;-58
2023/12/13 10:34:16;;;;;;;59.28;29.90;;;8.70;99.90;;;;;;4983404;28;20344;-57
2023/12/13 10:36:45;;;;;;;61.17;31.27;;;8.80;99.90;;;;;;4974646;28;20050;-58
2023/12/13 10:39:16;;;;;;;74.68;30.35;;;8.70;99.90;;;;;;4986033;28;20502;-58
2023/12/13 10:41:44;;;;;;;65.57;30.17;;;8.70;99.90;;;;;;4982503;28;20513;-57
2023/12/13 10:44:15;;;;;;;61.75;29.00;;;8.80;99.90;;;;;;4986378;28;20379;-57
2023/12/13 10:46:46;;;;;;;65.82;29.20;;;8.80;99.90;;;;;;4963749;28;20427;-58
2023/12/13 10:49:15;;;;;;;59.33;28.35;;;8.80;99.90;;;;;;4965034;28;20054;-58
2023/12/13 10:51:43;;;;;;;60.10;29.08;;;8.80;99.90;;;;;;4963462;28;20057;-58
2023/12/13 10:54:12;;;;;;;59.22;28.80;;;8.80;99.90;;;;;;4960973;28;20086;-58
2023/12/13 10:56:38;;;;;;;56.15;29.08;;;8.80;99.90;;;;;;4963470;28;20137;-57
2023/12/13 10:59:04;;;;;;;66.25;29.48;;;8.80;99.90;;;;;;4966992;28;20050;-57
2023/12/13 11:01:31;;;;;;;57.72;28.65;;;9.00;99.90;;;;;;4961429;28;20039;-58
2023/12/13 11:04:23;;;;;;;53.30;26.90;;;8.80;99.90;;;;;;4968225;28;20050;-57
2023/12/13 11:06:49;;;;;;;56.00;28.53;;;8.80;99.90;;;;;;4966425;28;20054;-57
2023/12/13 11:09:21;;;;;;;60.75;28.90;;;8.80;99.90;;;;;;4973364;28;20294;-58
2023/12/13 11:11:47;;;;;;;66.13;28.80;;;8.80;99.90;;;;;;4971211;28;20069;-58
2023/12/13 11:14:15;;;;;;;61.75;29.60;;;8.90;99.90;;;;;;4965329;28;20039;-56
2023/12/13 11:16:48;;;;;;;61.75;28.33;;;8.80;99.90;;;;;;4967529;28;20108;-57
2023/12/13 11:19:20;;;;;;;54.63;28.83;;;8.80;99.90;;;;;;4967632;28;20046;-58
2023/12/13 11:21:47;;;;;;;62.42;29.27;;;8.80;99.90;;;;;;4965051;28;20050;-56
2023/12/13 11:24:19;;;;;;;60.50;28.17;;;8.90;99.90;;;;;;4963631;28;20570;-58
2023/12/13 11:26:50;;;;;;;60.70;29.02;;;8.90;99.90;;;;;;4965678;28;20081;-57
2023/12/13 11:29:32;;;;;;;61.38;27.98;;;8.80;99.90;;;;;;4956287;28;20054;-56
2023/12/13 11:32:03;;;;;;;56.93;28.27;;;8.80;99.90;;;;;;4970943;28;20615;-58
2023/12/13 11:34:44;;;;;;;54.00;28.00;;;8.80;99.90;;;;;;4964996;28;20474;-57
2023/12/13 11:37:12;;;;;;;55.55;27.95;;;8.80;99.90;;;;;;4963547;28;20561;-56
2023/12/13 11:39:39;;;;;;;61.38;28.98;;;8.80;99.90;;;;;;4960044;28;20073;-57
2023/12/13 11:42:07;;;;;;;64.70;30.70;;;8.80;99.90;;;;;;4968157;28;20046;-58
2023/12/13 11:44:34;;;;;;;62.58;29.38;;;8.80;99.90;;;;;;4969096;28;20390;-58
2023/12/13 11:47:03;;;;;;;62.13;29.48;;;8.80;99.90;;;;;;4967766;28;20073;-57
2023/12/13 11:49:29;;;;;;;65.68;30.73;;;8.80;99.90;;;;;;4979346;28;20071;-57
2023/12/13 11:51:56;;;;;;;64.15;30.23;;;8.70;99.90;;;;;;4977987;28;20739;-57
2023/12/13 11:54:23;;;;;;;65.32;29.20;;;8.70;99.90;;;;;;4983419;28;20111;-58
2023/12/13 11:56:48;;;;;;;53.30;28.35;;;8.70;99.90;;;;;;4982187;28;20084;-57
2023/12/13 11:59:14;;;;;;;60.10;27.67;;;8.70;99.90;;;;;;4971520;28;20045;-58
2023/12/13 12:01:40;;;;;;;50.60;24.52;;;8.70;99.90;;;;;;4964420;28;20491;-57
2023/12/13 12:04:07;;;;;;;39.78;22.42;;;8.70;99.90;;;;;;4979125;28;20108;-58
2023/12/13 12:06:33;;;;;;;43.20;23.05;;;8.70;99.90;;;;;;4965151;28;20050;-57
2023/12/13 12:09:03;;;;;;;40.75;22.70;;;8.70;99.90;;;;;;4968529;28;20049;-58
2023/12/13 12:11:28;;;;;;;38.97;21.40;;;8.70;99.90;;;;;;4983279;28;20129;-56
2023/12/13 12:13:55;;;;;;;34.58;16.85;;;8.70;99.90;;;;;;4982022;28;20513;-57
2023/12/13 12:16:21;;;;;;;28.65;15.60;;;8.70;99.90;;;;;;4977784;28;20076;-57
2023/12/13 12:18:47;;;;;;;28.30;14.35;;;8.60;99.90;;;;;;4980589;28;20561;-58
2023/12/13 12:21:14;;;;;;;21.65;12.93;;;8.50;99.90;;;;;;4983167;28;20038;-58
2023/12/13 12:23:42;;;;;;;21.52;11.98;;;8.50;99.90;;;;;;4962425;28;20052;-57
2023/12/13 12:26:10;;;;;;;20.33;12.07;;;8.50;99.90;;;;;;4982844;28;20046;-57
2023/12/13 12:28:38;;;;;;;21.48;11.68;;;8.50;99.90;;;;;;4978152;28;20470;-57
2023/12/13 12:31:04;;;;;;;18.58;10.95;;;8.40;99.90;;;;;;4972933;28;20681;-58
2023/12/13 12:33:30;;;;;;;17.63;10.10;;;8.40;99.90;;;;;;4979542;28;20557;-57